So Ute Indian Res, Colorado
Current Conditions -  °F | °C
As of 9:53 PM on Thursday 30 Oct 2014 (Local Time) from KDRO Reporting Station
Clear Clear  
Wind Chill: 39°   Ceiling: Unl
Heat Index: 42°   Visibility: 10mi
Dew Point: 26°   Wind: 5mph
Humidity: 53%   Direction: 350°N
Pressure: 30.34"   Gusts: NA
Location:  37.0891°N, 107.649°W
Report Text: KDRO 310353Z AUTO 35004KT 10SM CLR 06/M03 A3034 RMK AO2 SLP261 T00561033
Loading
Personal Weather Stations






























Interactive Weather Map
Tropical Storm Tracking
New forecast layout! Learn more

10-Day Weather Forecast

Advertisements
Track Severe Weather on mobile